createdAt,value
2022-12-23T00:01:26.732Z,8.80
2022-12-23T00:03:57.579Z,8.80
2022-12-23T00:06:24.260Z,8.80
2022-12-23T00:08:58.168Z,8.80
2022-12-23T00:11:26.333Z,8.80
2022-12-23T00:14:18.141Z,8.80
2022-12-23T00:16:47.540Z,8.80
2022-12-23T00:19:14.216Z,8.70
2022-12-23T00:21:40.946Z,8.70
2022-12-23T00:24:07.693Z,8.70
2022-12-23T00:26:34.302Z,8.70
2022-12-23T00:29:00.999Z,8.70
2022-12-23T00:31:27.826Z,8.70
2022-12-23T00:33:54.585Z,8.60
2022-12-23T00:36:25.534Z,8.70
2022-12-23T00:39:10.925Z,8.70
2022-12-23T00:41:56.339Z,8.70
2022-12-23T00:44:23.091Z,8.70
2022-12-23T00:46:50.149Z,8.70
2022-12-23T00:49:37.370Z,8.70
2022-12-23T00:52:06.665Z,8.70
2022-12-23T00:54:33.603Z,8.70
2022-12-23T00:57:00.959Z,8.60
2022-12-23T00:59:27.667Z,8.60
2022-12-23T01:02:13.116Z,8.70
2022-12-23T01:04:58.414Z,8.70
2022-12-23T01:07:25.253Z,8.70
2022-12-23T01:09:51.936Z,8.70
2022-12-23T01:12:18.679Z,8.70
2022-12-23T01:14:45.398Z,8.60
2022-12-23T01:17:12.210Z,8.60
2022-12-23T01:19:38.943Z,8.60
2022-12-23T01:22:05.690Z,8.60
2022-12-23T01:24:32.876Z,8.70
2022-12-23T01:27:00.181Z,8.60
2022-12-23T01:29:26.875Z,8.60
2022-12-23T01:31:53.621Z,8.60
2022-12-23T01:34:20.292Z,8.60
2022-12-23T01:36:46.978Z,8.60
2022-12-23T01:39:13.679Z,8.60
2022-12-23T01:41:59.220Z,8.60
2022-12-23T01:44:55.147Z,8.60
2022-12-23T01:47:42.459Z,8.70
2022-12-23T01:50:23.255Z,8.60
2022-12-23T01:53:19.892Z,8.70
2022-12-23T01:55:48.643Z,8.70
2022-12-23T01:58:21.167Z,8.60
2022-12-23T02:01:06.621Z,8.60
2022-12-23T02:03:42.868Z,8.70
2022-12-23T02:06:43.570Z,8.60
2022-12-23T02:09:19.396Z,8.70
2022-12-23T02:12:17.065Z,8.70
2022-12-23T02:15:36.448Z,8.70
2022-12-23T02:18:51.367Z,8.70
2022-12-23T02:21:39.554Z,8.70
2022-12-23T02:24:44.697Z,8.70
2022-12-23T02:27:24.883Z,8.70
2022-12-23T02:30:20.281Z,8.70
2022-12-23T02:33:08.392Z,8.70
2022-12-23T02:35:58.938Z,8.70
2022-12-23T02:38:45.176Z,8.40
2022-12-23T02:41:31.509Z,8.60
2022-12-23T02:44:22.246Z,8.60
2022-12-23T02:47:00.728Z,8.70
2022-12-23T02:49:36.355Z,8.70
2022-12-23T02:52:07.510Z,8.70
2022-12-23T02:54:40.672Z,8.70
2022-12-23T02:57:11.496Z,8.70
2022-12-23T02:59:46.360Z,8.70
2022-12-23T03:02:13.481Z,8.70
2022-12-23T03:04:42.124Z,8.70
2022-12-23T03:07:18.756Z,8.80
2022-12-23T03:09:54.395Z,8.80
2022-12-23T03:12:26.805Z,8.80
2022-12-23T03:15:16.451Z,8.70
2022-12-23T03:17:59.574Z,8.80
2022-12-23T03:20:51.728Z,8.80
2022-12-23T03:23:27.081Z,8.80
2022-12-23T03:26:03.958Z,8.80
2022-12-23T03:28:44.651Z,8.80
2022-12-23T03:31:18.210Z,8.70
2022-12-23T03:33:48.347Z,8.80
2022-12-23T03:36:29.159Z,8.80
2022-12-23T03:38:57.187Z,8.70
2022-12-23T03:41:30.560Z,8.80
2022-12-23T03:44:03.922Z,8.80
2022-12-23T03:46:40.173Z,8.70
2022-12-23T03:49:25.935Z,8.80
2022-12-23T03:52:20.804Z,8.70
2022-12-23T03:54:54.540Z,8.80
2022-12-23T03:57:31.145Z,8.60
2022-12-23T03:59:57.972Z,8.70
2022-12-23T04:02:39.206Z,8.70
2022-12-23T04:05:23.803Z,8.70
2022-12-23T04:08:01.597Z,8.70
2022-12-23T04:10:29.216Z,8.70
2022-12-23T04:12:55.868Z,8.70
2022-12-23T04:15:24.860Z,8.70
2022-12-23T04:17:52.753Z,8.60
2022-12-23T04:20:19.533Z,8.60
2022-12-23T04:22:46.416Z,8.50
2022-12-23T04:25:14.800Z,8.50
2022-12-23T04:27:41.713Z,8.50
2022-12-23T04:30:10.637Z,8.50
2022-12-23T04:32:37.529Z,8.60
2022-12-23T04:35:04.817Z,8.60
2022-12-23T04:37:31.505Z,8.60
2022-12-23T04:39:58.145Z,8.60
2022-12-23T04:42:24.828Z,8.60
2022-12-23T04:44:51.521Z,8.60
2022-12-23T04:47:18.578Z,8.50
2022-12-23T04:49:45.247Z,8.50
2022-12-23T04:52:11.891Z,8.50
2022-12-23T04:54:45.529Z,8.50
2022-12-23T04:57:13.160Z,8.50
2022-12-23T04:59:39.950Z,8.50
2022-12-23T05:02:08.141Z,8.60
2022-12-23T05:04:35.257Z,8.50
2022-12-23T05:07:01.971Z,8.50
2022-12-23T05:09:28.763Z,8.40
2022-12-23T05:11:55.352Z,8.40
2022-12-23T05:14:22.045Z,8.40
2022-12-23T05:16:48.744Z,8.40
2022-12-23T05:19:15.608Z,8.30
2022-12-23T05:21:42.272Z,8.30
2022-12-23T05:24:09.069Z,8.20
2022-12-23T05:26:35.694Z,8.30
2022-12-23T05:29:02.405Z,8.30
2022-12-23T05:31:29.055Z,8.30
2022-12-23T05:33:58.397Z,8.30
2022-12-23T05:36:27.510Z,8.20
2022-12-23T05:38:54.166Z,8.30
2022-12-23T05:41:20.899Z,8.30
2022-12-23T05:43:47.603Z,8.20
2022-12-23T05:46:14.383Z,8.10
2022-12-23T05:48:41.141Z,8.10
2022-12-23T05:51:07.801Z,8.10
2022-12-23T05:53:34.443Z,8.00
2022-12-23T05:56:04.729Z,8.10
2022-12-23T05:58:31.421Z,8.20
2022-12-23T06:00:58.129Z,8.20
2022-12-23T06:03:24.974Z,8.20
2022-12-23T06:05:52.470Z,8.20
2022-12-23T06:08:19.213Z,8.20
2022-12-23T06:10:45.890Z,8.30
2022-12-23T06:13:12.707Z,8.40
2022-12-23T06:15:39.689Z,8.40
2022-12-23T06:18:06.311Z,8.30
2022-12-23T06:20:32.979Z,8.30
2022-12-23T06:22:59.729Z,8.40
2022-12-23T06:25:26.363Z,8.40
2022-12-23T06:27:53.032Z,8.40
2022-12-23T06:30:19.773Z,8.40
2022-12-23T06:32:46.502Z,8.30
2022-12-23T06:35:13.433Z,8.20
2022-12-23T06:37:40.123Z,8.20
2022-12-23T06:40:07.164Z,8.20
2022-12-23T06:42:33.835Z,8.10
2022-12-23T06:45:00.523Z,8.00
2022-12-23T06:47:27.225Z,7.90
2022-12-23T06:49:54.840Z,7.90
2022-12-23T06:52:23.115Z,7.80
2022-12-23T06:54:49.908Z,7.80
2022-12-23T06:57:16.561Z,7.60
2022-12-23T06:59:43.358Z,7.60
2022-12-23T07:02:12.140Z,7.60
2022-12-23T07:04:38.898Z,7.60
2022-12-23T07:07:05.610Z,7.70
2022-12-23T07:09:32.260Z,7.80
2022-12-23T07:11:58.955Z,7.70
2022-12-23T07:14:25.474Z,7.70
2022-12-23T07:16:52.189Z,7.60
2022-12-23T07:19:18.916Z,7.60
2022-12-23T07:21:45.559Z,7.70
2022-12-23T07:24:12.270Z,7.60
2022-12-23T07:26:38.924Z,7.60
2022-12-23T07:29:05.637Z,7.60
2022-12-23T07:31:32.432Z,7.70
2022-12-23T07:33:59.113Z,7.60
2022-12-23T07:36:25.775Z,7.60
2022-12-23T07:38:52.522Z,7.60
2022-12-23T07:41:19.394Z,7.50
2022-12-23T07:43:46.663Z,7.80
2022-12-23T07:46:13.364Z,7.80
2022-12-23T07:48:41.901Z,7.80
2022-12-23T07:51:08.905Z,7.80
2022-12-23T07:53:35.953Z,7.90
2022-12-23T07:56:02.691Z,7.90
2022-12-23T07:58:29.361Z,7.90
2022-12-23T08:01:01.226Z,7.90
2022-12-23T08:03:28.030Z,7.80
2022-12-23T08:06:02.849Z,7.50
2022-12-23T08:08:29.690Z,7.70
2022-12-23T08:11:04.787Z,7.70
2022-12-23T08:13:35.642Z,7.60
2022-12-23T08:16:03.678Z,7.80
2022-12-23T08:18:32.205Z,7.80
2022-12-23T08:21:01.427Z,7.70
2022-12-23T08:23:29.585Z,7.80
2022-12-23T08:26:05.980Z,7.80
2022-12-23T08:28:33.441Z,7.80
2022-12-23T08:31:12.989Z,7.80
2022-12-23T08:33:42.557Z,7.80
2022-12-23T08:36:14.049Z,7.80
2022-12-23T08:38:44.633Z,7.80
2022-12-23T08:41:16.415Z,7.80
2022-12-23T08:43:43.243Z,7.90
2022-12-23T08:46:10.291Z,7.90
2022-12-23T08:48:37.796Z,7.90
2022-12-23T08:51:11.046Z,7.90
2022-12-23T08:53:39.603Z,7.90
2022-12-23T08:56:12.606Z,8.00
2022-12-23T08:58:45.555Z,8.10
2022-12-23T09:01:14.564Z,8.00
2022-12-23T09:03:42.486Z,8.10
2022-12-23T09:06:15.092Z,8.00
2022-12-23T09:08:42.188Z,8.00
2022-12-23T09:11:14.764Z,8.00
2022-12-23T09:13:41.960Z,8.00
2022-12-23T09:16:09.082Z,8.10
2022-12-23T09:18:37.292Z,8.00
2022-12-23T09:21:07.277Z,7.90
2022-12-23T09:23:34.948Z,7.90
2022-12-23T09:26:01.590Z,8.00
2022-12-23T09:28:28.256Z,7.90
2022-12-23T09:30:54.936Z,7.90
2022-12-23T09:33:21.739Z,8.00
2022-12-23T09:35:48.452Z,8.00
2022-12-23T09:38:15.095Z,8.00
2022-12-23T09:40:42.388Z,7.90
2022-12-23T09:43:33.709Z,7.90
2022-12-23T09:46:12.099Z,7.90
2022-12-23T09:48:45.984Z,7.80
2022-12-23T09:51:13.445Z,7.90
2022-12-23T09:53:46.393Z,7.90
2022-12-23T09:56:34.216Z,7.90
2022-12-23T09:59:19.135Z,7.80
2022-12-23T10:01:57.356Z,7.80
2022-12-23T10:04:42.890Z,7.80
2022-12-23T10:07:17.372Z,7.80
2022-12-23T10:09:48.879Z,7.90
2022-12-23T10:12:40.405Z,7.70
2022-12-23T10:15:19.971Z,7.70
2022-12-23T10:17:48.601Z,7.70
2022-12-23T10:20:20.912Z,7.80
2022-12-23T10:22:47.587Z,7.80
2022-12-23T10:25:19.949Z,7.90
2022-12-23T10:27:46.613Z,7.80
2022-12-23T10:30:34.208Z,7.90
2022-12-23T10:33:21.214Z,8.00
2022-12-23T10:36:02.151Z,8.00
2022-12-23T10:38:34.928Z,8.00
2022-12-23T10:41:28.516Z,8.10
2022-12-23T10:44:04.407Z,8.10
2022-12-23T10:46:45.953Z,8.40
2022-12-23T10:49:33.443Z,7.90
2022-12-23T10:52:18.025Z,8.00
2022-12-23T10:54:46.367Z,8.30
2022-12-23T10:57:16.573Z,8.30
2022-12-23T10:59:43.743Z,8.30
2022-12-23T11:02:13.704Z,8.30
2022-12-23T11:04:42.961Z,8.40
2022-12-23T11:07:46.980Z,8.20
2022-12-23T11:10:22.268Z,8.20
2022-12-23T11:12:53.577Z,8.30
2022-12-23T11:15:38.464Z,8.20
2022-12-23T11:18:14.077Z,8.10
2022-12-23T11:20:42.881Z,8.10
2022-12-23T11:23:35.732Z,8.10
2022-12-23T11:26:09.508Z,8.00
2022-12-23T11:28:46.911Z,8.00
2022-12-23T11:31:16.947Z,8.20
2022-12-23T11:33:55.124Z,8.30
2022-12-23T11:36:25.000Z,8.40
2022-12-23T11:38:59.577Z,8.40
2022-12-23T11:41:34.984Z,8.40
2022-12-23T11:44:11.395Z,8.40
2022-12-23T11:46:38.431Z,8.50
2022-12-23T11:49:16.153Z,8.50
2022-12-23T11:52:02.354Z,8.50
2022-12-23T11:54:29.538Z,8.50
2022-12-23T11:56:56.929Z,8.60
2022-12-23T11:59:30.634Z,8.60
2022-12-23T12:02:00.433Z,8.60
2022-12-23T12:04:33.276Z,8.60
2022-12-23T12:07:01.799Z,8.50
2022-12-23T12:09:30.642Z,8.50
2022-12-23T12:12:13.380Z,8.50
2022-12-23T12:14:44.607Z,8.60
2022-12-23T12:17:39.379Z,8.70
2022-12-23T12:20:37.589Z,8.80
2022-12-23T12:23:10.658Z,8.80
2022-12-23T12:25:51.589Z,8.80
2022-12-23T12:28:25.150Z,8.80
2022-12-23T12:31:21.302Z,8.90
2022-12-23T12:34:02.421Z,9.00
2022-12-23T12:36:47.695Z,9.00
2022-12-23T12:39:26.137Z,9.00
2022-12-23T12:42:05.037Z,9.00
2022-12-23T12:44:54.572Z,8.90
2022-12-23T12:47:53.257Z,8.90
2022-12-23T12:50:33.895Z,8.90
2022-12-23T12:53:15.625Z,8.90
2022-12-23T12:55:48.112Z,9.00
2022-12-23T12:58:24.630Z,9.00
2022-12-23T13:01:12.945Z,9.00
2022-12-23T13:04:16.469Z,9.00
2022-12-23T13:06:57.999Z,9.00
2022-12-23T13:09:55.235Z,9.00
2022-12-23T13:12:34.503Z,9.10
2022-12-23T13:15:39.569Z,9.00
2022-12-23T13:18:41.537Z,9.00
2022-12-23T13:21:24.284Z,9.00
2022-12-23T13:24:12.753Z,9.00
2022-12-23T13:26:48.873Z,8.70
2022-12-23T13:29:46.223Z,8.60
2022-12-23T13:32:26.384Z,8.60
2022-12-23T13:35:12.592Z,8.60
2022-12-23T13:38:18.053Z,8.70
2022-12-23T13:41:00.450Z,8.80
2022-12-23T13:43:37.784Z,8.80
2022-12-23T13:46:19.079Z,8.80
2022-12-23T13:49:08.501Z,8.90
2022-12-23T13:52:04.211Z,8.90
2022-12-23T13:55:09.601Z,8.90
2022-12-23T13:58:06.777Z,8.80
2022-12-23T14:00:34.924Z,8.80
2022-12-23T14:03:01.583Z,8.80
2022-12-23T14:05:41.106Z,8.80
2022-12-23T14:08:20.174Z,8.90
2022-12-23T14:10:58.925Z,8.90
2022-12-23T14:13:28.984Z,8.80
2022-12-23T14:16:23.152Z,8.90
2022-12-23T14:19:28.931Z,8.90
2022-12-23T14:22:01.140Z,8.90
2022-12-23T14:25:00.049Z,8.90
2022-12-23T14:27:49.881Z,9.10
2022-12-23T14:30:37.534Z,9.20
2022-12-23T14:33:27.598Z,9.30
2022-12-23T14:36:20.864Z,9.20
2022-12-23T14:39:12.409Z,9.10
2022-12-23T14:41:50.880Z,9.00
2022-12-23T14:44:35.486Z,9.00
2022-12-23T14:47:03.573Z,9.00
2022-12-23T14:49:40.917Z,9.00
2022-12-23T14:52:40.924Z,9.00
2022-12-23T14:55:31.300Z,9.00
2022-12-23T14:58:28.355Z,9.00
2022-12-23T15:01:08.084Z,8.90
2022-12-23T15:03:42.140Z,9.00
2022-12-23T15:06:14.263Z,8.90
2022-12-23T15:08:43.360Z,8.90
2022-12-23T15:11:26.651Z,8.90
2022-12-23T15:13:55.235Z,8.90
2022-12-23T15:16:30.478Z,8.90
2022-12-23T15:19:00.222Z,8.90
2022-12-23T15:21:34.754Z,8.80
2022-12-23T15:24:01.479Z,8.80
2022-12-23T15:26:31.471Z,8.80
2022-12-23T15:29:00.168Z,8.80
2022-12-23T15:31:39.238Z,8.70
2022-12-23T15:34:17.100Z,8.70
2022-12-23T15:36:44.593Z,8.70
2022-12-23T15:39:19.497Z,8.70
2022-12-23T15:41:47.676Z,8.70
2022-12-23T15:44:22.686Z,8.70
2022-12-23T15:46:50.637Z,8.70
2022-12-23T15:49:19.803Z,8.70
2022-12-23T15:52:07.761Z,8.70
2022-12-23T15:54:44.895Z,8.70
2022-12-23T15:57:20.447Z,8.70
2022-12-23T15:59:47.587Z,8.70
2022-12-23T16:05:33.426Z,8.70
2022-12-23T16:08:16.073Z,8.70
2022-12-23T16:10:55.480Z,8.70
2022-12-23T16:13:22.129Z,8.70
2022-12-23T16:15:48.804Z,8.70
2022-12-23T16:18:24.002Z,8.70
2022-12-23T16:20:57.642Z,8.70
2022-12-23T16:23:29.245Z,8.70
2022-12-23T16:25:57.579Z,8.70
2022-12-23T16:28:38.241Z,8.80
2022-12-23T16:31:07.838Z,8.90
2022-12-23T16:33:39.593Z,8.90
2022-12-23T16:36:18.867Z,8.80
2022-12-23T16:38:46.222Z,8.80
2022-12-23T16:41:12.983Z,8.70
2022-12-23T16:43:41.279Z,8.70
2022-12-23T16:46:17.251Z,8.70
2022-12-23T16:48:52.703Z,8.60
2022-12-23T16:51:21.999Z,8.60
2022-12-23T16:53:49.956Z,8.60
2022-12-23T16:56:18.990Z,8.80
2022-12-23T16:58:46.489Z,8.70
2022-12-23T17:01:21.720Z,8.70
2022-12-23T17:03:48.817Z,8.70
2022-12-23T17:06:17.080Z,8.60
2022-12-23T17:08:43.835Z,8.50
2022-12-23T17:11:31.984Z,8.40
2022-12-23T17:14:04.102Z,8.40
2022-12-23T17:16:32.565Z,8.40
2022-12-23T17:19:00.036Z,8.30
2022-12-23T17:21:30.632Z,8.30
2022-12-23T17:24:09.192Z,8.30
2022-12-23T17:26:35.913Z,8.40
2022-12-23T17:29:06.215Z,8.30
2022-12-23T17:31:34.110Z,8.20
2022-12-23T17:34:01.938Z,8.20
2022-12-23T17:36:28.966Z,8.20
2022-12-23T17:38:55.936Z,8.10
2022-12-23T17:41:27.463Z,8.20
2022-12-23T17:43:54.385Z,8.30
2022-12-23T17:46:21.195Z,8.40
2022-12-23T17:48:47.987Z,8.50
2022-12-23T17:51:17.635Z,8.50
2022-12-23T17:53:45.702Z,8.50
2022-12-23T17:56:18.441Z,8.40
2022-12-23T17:58:46.687Z,8.40
2022-12-23T18:01:28.288Z,8.50
2022-12-23T18:03:56.788Z,8.40
2022-12-23T18:06:24.749Z,8.50
2022-12-23T18:08:51.515Z,8.50
2022-12-23T18:11:30.877Z,8.50
2022-12-23T18:13:57.634Z,8.50
2022-12-23T18:16:24.322Z,8.60
2022-12-23T18:18:51.832Z,8.50
2022-12-23T18:21:25.338Z,8.50
2022-12-23T18:23:54.734Z,8.10
2022-12-23T18:26:21.499Z,8.50
2022-12-23T18:28:48.192Z,8.40
2022-12-23T18:31:21.620Z,8.40
2022-12-23T18:33:48.634Z,8.50
2022-12-23T18:36:26.090Z,8.50
2022-12-23T18:38:53.331Z,8.50
2022-12-23T18:41:21.438Z,8.50
2022-12-23T18:43:48.194Z,8.50
2022-12-23T18:46:15.130Z,8.50
2022-12-23T18:48:41.893Z,8.40
2022-12-23T18:51:17.324Z,8.30
2022-12-23T18:53:44.203Z,8.40
2022-12-23T18:56:15.453Z,8.50
2022-12-23T18:58:42.587Z,8.40
2022-12-23T19:01:14.267Z,8.40
2022-12-23T19:03:41.387Z,8.40
2022-12-23T19:06:11.416Z,8.50
2022-12-23T19:08:38.739Z,8.40
2022-12-23T19:11:16.656Z,8.50
2022-12-23T19:13:43.959Z,8.50
2022-12-23T19:16:19.467Z,8.60
2022-12-23T19:18:47.845Z,8.50
2022-12-23T19:21:15.068Z,8.60
2022-12-23T19:23:42.109Z,8.50
2022-12-23T19:26:09.755Z,8.50
2022-12-23T19:28:38.187Z,8.60
2022-12-23T19:31:12.994Z,8.60
2022-12-23T19:33:41.247Z,8.50
2022-12-23T19:36:10.120Z,8.50
2022-12-23T19:38:37.153Z,8.40
2022-12-23T19:41:04.044Z,8.50
2022-12-23T19:43:30.819Z,8.30
2022-12-23T19:46:02.221Z,8.30
2022-12-23T19:48:29.521Z,8.30
2022-12-23T19:51:04.515Z,8.30
2022-12-23T19:53:31.528Z,8.30
2022-12-23T19:56:11.137Z,8.30
2022-12-23T19:58:39.671Z,8.40
2022-12-23T20:01:09.413Z,8.30
2022-12-23T20:03:37.198Z,8.40
2022-12-23T20:06:05.871Z,8.20
2022-12-23T20:08:33.769Z,8.10
2022-12-23T20:11:05.859Z,8.10
2022-12-23T20:13:33.290Z,8.00
2022-12-23T20:16:00.239Z,8.10
2022-12-23T20:18:27.212Z,8.10
2022-12-23T20:20:54.184Z,8.10
2022-12-23T20:23:20.906Z,8.10
2022-12-23T20:25:47.708Z,8.10
2022-12-23T20:28:14.436Z,8.10
2022-12-23T20:30:42.497Z,8.20
2022-12-23T20:33:10.032Z,8.20
2022-12-23T20:35:37.581Z,8.20
2022-12-23T20:38:04.336Z,8.30
2022-12-23T20:40:31.350Z,8.30
2022-12-23T20:42:58.466Z,8.30
2022-12-23T20:45:28.258Z,8.30
2022-12-23T20:47:55.015Z,8.40
2022-12-23T20:50:21.688Z,8.20
2022-12-23T20:52:48.553Z,8.30
2022-12-23T20:55:15.199Z,8.30
2022-12-23T20:57:44.623Z,8.30
2022-12-23T21:00:12.817Z,8.30
2022-12-23T21:02:40.724Z,8.30
2022-12-23T21:05:07.753Z,8.30
2022-12-23T21:07:34.469Z,8.30
2022-12-23T21:10:01.180Z,8.30
2022-12-23T21:12:28.145Z,8.20
2022-12-23T21:14:55.984Z,8.10
2022-12-23T21:17:23.875Z,8.20
2022-12-23T21:19:50.538Z,8.10
2022-12-23T21:22:17.189Z,8.10
2022-12-23T21:24:43.773Z,8.10
2022-12-23T21:27:10.408Z,8.20
2022-12-23T21:29:37.021Z,8.20
2022-12-23T21:32:03.847Z,8.00
2022-12-23T21:34:30.497Z,8.00
2022-12-23T21:36:57.204Z,8.00
2022-12-23T21:39:24.080Z,8.00
2022-12-23T21:41:51.486Z,8.00
2022-12-23T21:44:18.470Z,8.00
2022-12-23T21:46:45.257Z,8.00
2022-12-23T21:49:12.974Z,8.00
2022-12-23T21:51:41.323Z,7.90
2022-12-23T21:54:10.728Z,8.00
2022-12-23T21:56:38.775Z,8.00
2022-12-23T21:59:08.519Z,8.00
2022-12-23T22:01:35.275Z,8.10
2022-12-23T22:04:02.069Z,8.20
2022-12-23T22:06:31.764Z,8.20
2022-12-23T22:08:58.575Z,8.30
2022-12-23T22:11:27.754Z,8.30
2022-12-23T22:13:56.547Z,8.20
2022-12-23T22:16:24.899Z,8.20
2022-12-23T22:18:53.117Z,8.30
2022-12-23T22:21:22.406Z,8.20
2022-12-23T22:23:50.394Z,8.20
2022-12-23T22:26:24.667Z,8.10
2022-12-23T22:28:54.004Z,8.10
2022-12-23T22:31:44.495Z,8.10
2022-12-23T22:34:17.660Z,8.20
2022-12-23T22:36:44.561Z,8.10
2022-12-23T22:39:19.723Z,8.00
2022-12-23T22:41:47.580Z,7.90
2022-12-23T22:44:14.985Z,7.90
2022-12-23T22:46:41.976Z,7.90
2022-12-23T22:49:12.087Z,8.00
2022-12-23T22:51:40.708Z,7.80
2022-12-23T22:54:07.795Z,7.60
2022-12-23T22:56:34.484Z,7.60
2022-12-23T22:59:01.122Z,7.70
2022-12-23T23:01:36.932Z,7.70
2022-12-23T23:04:04.540Z,7.70
2022-12-23T23:06:34.404Z,7.70
2022-12-23T23:09:01.414Z,7.60
2022-12-23T23:11:28.944Z,7.60
2022-12-23T23:13:56.400Z,7.70
2022-12-23T23:16:24.232Z,7.60
2022-12-23T23:18:51.750Z,7.60
2022-12-23T23:21:19.053Z,7.60
2022-12-23T23:23:45.975Z,7.60
2022-12-23T23:26:13.232Z,7.60
2022-12-23T23:28:40.618Z,7.50
2022-12-23T23:33:54.975Z,7.40
2022-12-23T23:36:21.724Z,7.40
2022-12-23T23:38:48.472Z,7.30
2022-12-23T23:41:18.881Z,7.30
2022-12-23T23:43:47.197Z,7.20
2022-12-23T23:46:13.872Z,7.10
2022-12-23T23:48:40.540Z,7.10
2022-12-23T23:51:07.411Z,7.10
2022-12-23T23:53:34.144Z,7.20
2022-12-23T23:56:06.155Z,7.10
2022-12-23T23:58:33.063Z,7.10
